createdAt,value
2022-12-03T00:00:45.322Z,99.99
2022-12-03T00:01:45.221Z,99.99
2022-12-03T00:02:45.500Z,99.99
2022-12-03T00:03:45.371Z,99.99
2022-12-03T00:04:45.164Z,99.99
2022-12-03T00:05:49.169Z,99.99
2022-12-03T00:06:45.177Z,99.99
2022-12-03T00:07:45.184Z,99.99
2022-12-03T00:08:45.128Z,99.99
2022-12-03T00:09:45.149Z,99.99
2022-12-03T00:10:45.113Z,99.99
2022-12-03T00:11:45.145Z,99.99
2022-12-03T00:12:45.105Z,99.99
2022-12-03T00:13:45.090Z,99.99
2022-12-03T00:14:45.199Z,99.99
2022-12-03T00:15:45.123Z,99.99
2022-12-03T00:16:45.039Z,99.99
2022-12-03T00:17:45.097Z,99.99
2022-12-03T00:18:45.047Z,99.99
2022-12-03T00:19:45.042Z,99.99
2022-12-03T00:20:45.009Z,99.99
2022-12-03T00:21:45.015Z,99.99
2022-12-03T00:22:44.996Z,99.99
2022-12-03T00:23:45.051Z,99.99
2022-12-03T00:24:44.977Z,99.99
2022-12-03T00:25:44.992Z,99.99
2022-12-03T00:26:44.952Z,99.99
2022-12-03T00:27:44.995Z,99.99
2022-12-03T00:28:44.928Z,99.99
2022-12-03T00:29:44.926Z,99.99
2022-12-03T00:30:45.018Z,99.99
2022-12-03T00:31:44.987Z,99.99
2022-12-03T00:32:44.872Z,99.99
2022-12-03T00:33:44.870Z,99.99
2022-12-03T00:34:44.855Z,99.99
2022-12-03T00:35:44.857Z,99.99
2022-12-03T00:36:44.876Z,99.99
2022-12-03T00:37:44.849Z,99.99
2022-12-03T00:38:44.886Z,99.99
2022-12-03T00:39:44.825Z,99.99
2022-12-03T00:40:44.798Z,99.99
2022-12-03T00:41:44.829Z,99.99
2022-12-03T00:42:44.812Z,99.99
2022-12-03T00:43:44.769Z,99.99
2022-12-03T00:44:44.780Z,99.99
2022-12-03T00:45:44.760Z,99.99
2022-12-03T00:46:44.907Z,99.99
2022-12-03T00:47:44.731Z,99.99
2022-12-03T00:48:44.769Z,99.99
2022-12-03T00:49:44.823Z,99.99
2022-12-03T00:50:44.682Z,99.99
2022-12-03T00:51:44.736Z,99.99
2022-12-03T00:52:44.691Z,99.99
2022-12-03T00:53:44.671Z,99.99
2022-12-03T00:54:44.678Z,99.99
2022-12-03T00:55:44.648Z,99.99
2022-12-03T00:56:44.678Z,99.99
2022-12-03T00:57:45.074Z,99.99
2022-12-03T00:58:44.609Z,99.99
2022-12-03T00:59:44.610Z,99.99
2022-12-03T01:00:44.669Z,99.99
2022-12-03T01:01:44.646Z,99.99
2022-12-03T01:02:44.567Z,99.99
2022-12-03T01:03:44.638Z,99.99
2022-12-03T01:04:44.581Z,99.99
2022-12-03T01:05:44.557Z,99.99
2022-12-03T01:06:44.531Z,99.99
2022-12-03T01:07:44.574Z,99.99
2022-12-03T01:08:44.495Z,99.99
2022-12-03T01:09:44.549Z,99.99
2022-12-03T01:10:44.486Z,99.99
2022-12-03T01:11:44.482Z,99.99
2022-12-03T01:12:44.500Z,99.99
2022-12-03T01:13:44.469Z,99.99
2022-12-03T01:14:44.445Z,99.99
2022-12-03T01:15:44.508Z,99.99
2022-12-03T01:16:44.420Z,99.99
2022-12-03T01:17:44.440Z,99.99
2022-12-03T01:18:44.462Z,99.99
2022-12-03T01:19:48.286Z,99.99
2022-12-03T01:20:44.377Z,99.99
2022-12-03T01:21:44.378Z,99.99
2022-12-03T01:22:44.359Z,99.99
2022-12-03T01:23:44.375Z,99.99
2022-12-03T01:24:44.356Z,99.99
2022-12-03T01:25:44.339Z,99.99
2022-12-03T01:26:44.308Z,99.99
2022-12-03T01:27:44.317Z,99.99
2022-12-03T01:28:44.285Z,99.99
2022-12-03T01:29:44.298Z,99.99
2022-12-03T01:30:44.287Z,99.99
2022-12-03T01:31:44.313Z,99.66
2022-12-03T01:32:44.249Z,99.99
2022-12-03T01:33:44.254Z,99.99
2022-12-03T01:34:44.286Z,99.99
2022-12-03T01:35:44.233Z,99.99
2022-12-03T01:36:44.203Z,99.99
2022-12-03T01:37:44.214Z,99.99
2022-12-03T01:38:44.242Z,99.99
2022-12-03T01:39:44.192Z,99.45
2022-12-03T01:40:44.185Z,99.55
2022-12-03T01:41:44.164Z,99.99
2022-12-03T01:42:44.200Z,99.99
2022-12-03T01:43:44.147Z,99.99
2022-12-03T01:44:44.113Z,99.87
2022-12-03T01:45:44.130Z,99.99
2022-12-03T01:46:44.152Z,99.99
2022-12-03T01:47:44.137Z,99.99
2022-12-03T01:48:44.123Z,99.99
2022-12-03T01:49:44.086Z,99.99
2022-12-03T01:50:44.122Z,99.62
2022-12-03T01:51:44.085Z,99.10
2022-12-03T01:52:44.043Z,99.51
2022-12-03T01:53:44.051Z,99.99
2022-12-03T01:54:44.028Z,99.99
2022-12-03T01:55:48.440Z,99.62
2022-12-03T01:56:43.998Z,99.51
2022-12-03T01:57:44.016Z,98.88
2022-12-03T01:58:43.962Z,99.93
2022-12-03T01:59:43.992Z,99.62
2022-12-03T02:00:43.969Z,99.51
2022-12-03T02:01:44.011Z,99.30
2022-12-03T02:02:43.931Z,99.41
2022-12-03T02:03:44.071Z,99.30
2022-12-03T02:04:43.913Z,99.93
2022-12-03T02:05:43.945Z,99.41
2022-12-03T02:06:43.916Z,99.72
2022-12-03T02:07:43.935Z,99.99
2022-12-03T02:08:43.858Z,99.99
2022-12-03T02:09:43.891Z,99.99
2022-12-03T06:00:47.021Z,98.31
2022-12-03T06:01:47.900Z,98.62
2022-12-03T06:02:48.185Z,97.89
2022-12-03T06:03:48.220Z,97.06
2022-12-03T06:04:47.856Z,98.10
2022-12-03T06:05:47.848Z,97.99
2022-12-03T06:06:47.836Z,97.68
2022-12-03T06:07:47.931Z,98.52
2022-12-03T06:08:47.828Z,98.52
2022-12-03T06:09:47.830Z,98.52
2022-12-03T06:10:47.812Z,98.83
2022-12-03T06:11:47.804Z,98.62
2022-12-03T06:12:47.776Z,98.41
2022-12-03T06:13:47.794Z,99.04
2022-12-03T06:14:47.758Z,98.41
2022-12-03T06:15:47.824Z,98.20
2022-12-03T06:16:47.736Z,98.20
2022-12-03T06:17:47.745Z,97.89
2022-12-03T06:18:47.711Z,98.62
2022-12-03T06:19:47.736Z,98.41
2022-12-03T06:20:47.711Z,98.31
2022-12-03T06:21:47.748Z,98.41
2022-12-03T06:22:47.694Z,98.52
2022-12-03T06:23:47.680Z,98.31
2022-12-03T06:24:47.649Z,98.31
2022-12-03T06:25:47.677Z,98.52
2022-12-03T06:26:47.637Z,97.89
2022-12-03T06:27:47.664Z,98.52
2022-12-03T06:28:47.624Z,97.68
2022-12-03T06:29:47.606Z,98.72
2022-12-03T06:30:47.658Z,98.72
2022-12-03T06:31:47.593Z,98.41
2022-12-03T06:32:47.588Z,98.20
2022-12-03T06:33:47.567Z,97.58
2022-12-03T06:34:47.554Z,98.41
2022-12-03T06:35:47.564Z,97.89
2022-12-03T06:36:47.536Z,97.99
2022-12-03T06:37:47.529Z,98.41
2022-12-03T06:38:47.532Z,99.24
2022-12-03T06:39:47.507Z,98.93
2022-12-03T06:40:47.441Z,98.31
2022-12-03T06:41:47.447Z,98.20
2022-12-03T06:42:47.411Z,98.31
2022-12-03T06:43:47.417Z,98.52
2022-12-03T06:44:47.419Z,97.78
2022-12-03T06:45:48.026Z,97.99
2022-12-03T06:46:47.453Z,98.41
2022-12-03T06:47:47.374Z,97.58
2022-12-03T06:48:47.353Z,97.68
2022-12-03T06:49:47.353Z,97.89
2022-12-03T06:50:47.329Z,97.47
2022-12-03T06:51:47.344Z,98.20
2022-12-03T06:52:47.341Z,97.27
2022-12-03T06:53:47.317Z,96.22
2022-12-03T06:54:47.282Z,97.06
2022-12-03T06:55:47.295Z,96.43
2022-12-03T06:56:47.279Z,96.53
2022-12-03T06:57:47.347Z,97.78
2022-12-03T06:58:47.238Z,97.58
2022-12-03T06:59:47.247Z,97.89
2022-12-03T07:00:47.227Z,97.37
2022-12-03T07:01:47.253Z,96.95
2022-12-03T07:02:47.284Z,97.16
2022-12-03T07:03:47.221Z,97.06
2022-12-03T07:04:47.182Z,96.01
2022-12-03T07:05:47.180Z,96.85
2022-12-03T07:06:47.174Z,97.37
2022-12-03T07:07:47.203Z,96.95
2022-12-03T07:08:47.140Z,97.58
2022-12-03T07:09:47.179Z,97.78
2022-12-03T07:10:47.160Z,97.37
2022-12-03T07:11:47.130Z,97.47
2022-12-03T07:12:47.111Z,97.37
2022-12-03T07:13:47.109Z,97.68
2022-12-03T07:14:47.071Z,96.95
2022-12-03T07:15:47.142Z,97.47
2022-12-03T07:16:47.050Z,97.68
2022-12-03T07:17:47.060Z,97.68
2022-12-03T07:18:47.032Z,97.47
2022-12-03T07:19:47.033Z,97.06
2022-12-03T07:20:47.014Z,97.37
2022-12-03T07:21:47.037Z,96.64
2022-12-03T07:22:46.992Z,95.91
2022-12-03T07:23:46.997Z,95.81
2022-12-03T07:24:46.974Z,96.64
2022-12-03T07:25:46.979Z,96.22
2022-12-03T07:26:46.964Z,96.12
2022-12-03T07:27:46.979Z,95.91
2022-12-03T07:28:46.925Z,97.01
2022-12-03T07:29:46.932Z,96.85
2022-12-03T07:30:46.913Z,96.64
2022-12-03T07:31:47.043Z,96.18
2022-12-03T07:32:46.888Z,96.18
2022-12-03T07:33:46.910Z,97.01
2022-12-03T07:34:46.866Z,97.53
2022-12-03T07:35:46.887Z,97.43
2022-12-03T07:36:46.862Z,97.12
2022-12-03T07:37:46.874Z,97.64
2022-12-03T07:38:46.835Z,97.43
2022-12-03T07:39:46.833Z,96.59
2022-12-03T07:40:46.820Z,97.85
2022-12-03T07:41:46.851Z,97.85
2022-12-03T07:42:46.795Z,97.95
2022-12-03T07:43:46.823Z,98.05
2022-12-03T07:44:46.769Z,97.33
2022-12-03T07:45:46.795Z,97.33
2022-12-03T07:46:46.791Z,97.64
2022-12-03T07:47:46.749Z,97.43
2022-12-03T07:48:46.743Z,97.43
2022-12-03T07:49:46.731Z,97.33
2022-12-03T07:50:46.710Z,97.95
2022-12-03T07:51:46.713Z,98.47
2022-12-03T07:52:46.681Z,97.22
2022-12-03T07:53:46.703Z,96.28
2022-12-03T07:54:46.679Z,97.53
2022-12-03T07:55:46.675Z,97.12
2022-12-03T07:56:46.654Z,98.36
2022-12-03T07:57:46.655Z,97.85
2022-12-03T07:58:46.620Z,97.85
2022-12-03T07:59:46.641Z,97.33
2022-12-03T08:00:46.731Z,97.01
2022-12-03T08:01:46.673Z,97.33
2022-12-03T08:02:46.626Z,97.53
2022-12-03T08:03:46.597Z,97.12
2022-12-03T08:04:46.555Z,96.91
2022-12-03T08:05:46.590Z,97.01
2022-12-03T08:06:46.562Z,96.91
2022-12-03T08:07:46.573Z,96.59
2022-12-03T08:08:46.526Z,97.12
2022-12-03T08:09:46.515Z,96.70
2022-12-03T08:10:46.499Z,96.70
2022-12-03T08:11:46.509Z,97.43
2022-12-03T08:12:46.501Z,97.22
2022-12-03T08:13:46.483Z,97.12
2022-12-03T08:14:46.554Z,96.70
2022-12-03T08:15:46.491Z,95.97
2022-12-03T08:18:02.702Z,96.28
2022-12-03T08:20:00.387Z,97.33
2022-12-03T08:21:01.391Z,96.49
2022-12-03T08:22:01.740Z,96.49
2022-12-03T08:23:01.373Z,96.28
2022-12-03T08:24:01.352Z,96.34
2022-12-03T08:25:01.362Z,96.86
2022-12-03T08:26:01.326Z,97.49
2022-12-03T08:27:01.337Z,96.76
2022-12-03T08:28:01.300Z,96.76
2022-12-03T08:29:01.317Z,96.66
2022-12-03T08:30:01.313Z,96.34
2022-12-03T08:31:01.305Z,95.62
2022-12-03T08:32:01.328Z,95.93
2022-12-03T08:33:01.271Z,96.03
2022-12-03T08:34:01.243Z,97.28
2022-12-03T08:35:01.269Z,96.34
2022-12-03T08:36:01.225Z,95.83
2022-12-03T08:37:01.243Z,96.76
2022-12-03T08:38:01.196Z,95.93
2022-12-03T08:39:01.214Z,96.14
2022-12-03T08:40:01.185Z,96.14
2022-12-03T08:41:01.188Z,95.20
2022-12-03T08:42:01.182Z,95.57
2022-12-03T08:43:01.197Z,95.67
2022-12-03T08:44:01.151Z,95.99
2022-12-03T08:45:01.149Z,95.57
2022-12-03T08:46:01.176Z,95.67
2022-12-03T08:47:01.128Z,94.53
2022-12-03T08:48:01.127Z,96.09
2022-12-03T08:49:01.129Z,95.89
2022-12-03T08:50:01.082Z,95.05
2022-12-03T08:51:01.074Z,95.57
2022-12-03T08:52:01.053Z,95.89
2022-12-03T08:53:01.053Z,95.57
2022-12-03T08:54:02.150Z,95.36
2022-12-03T08:55:01.058Z,95.57
2022-12-03T08:56:01.018Z,94.84
2022-12-03T08:57:01.021Z,95.99
2022-12-03T08:58:01.001Z,95.36
2022-12-03T08:59:01.002Z,95.57
2022-12-03T09:00:00.993Z,95.89
2022-12-03T09:01:01.016Z,95.36
2022-12-03T09:02:00.958Z,95.67
2022-12-03T09:03:00.967Z,95.78
2022-12-03T09:04:00.980Z,95.67
2022-12-03T09:05:00.924Z,96.61
2022-12-03T09:06:00.943Z,97.19
2022-12-03T09:07:00.920Z,96.25
2022-12-03T09:08:00.994Z,95.21
2022-12-03T09:09:05.263Z,95.94
2022-12-03T09:10:00.877Z,96.04
2022-12-03T09:11:00.873Z,95.84
2022-12-03T09:12:00.865Z,95.63
2022-12-03T09:13:00.856Z,95.94
2022-12-03T09:14:00.825Z,96.04
2022-12-03T09:15:00.825Z,96.25
2022-12-03T09:16:00.799Z,96.25
2022-12-03T09:17:00.907Z,94.59
2022-12-03T09:18:00.806Z,94.59
2022-12-03T09:19:00.810Z,95.63
2022-12-03T09:20:00.762Z,96.04
2022-12-03T09:21:00.769Z,96.47
2022-12-03T09:22:00.739Z,96.15
2022-12-03T09:23:00.764Z,96.36
2022-12-03T09:24:00.723Z,96.25
2022-12-03T09:25:00.727Z,95.73
2022-12-03T09:26:00.719Z,95.73
2022-12-03T09:27:00.707Z,95.73
2022-12-03T09:28:00.681Z,94.80
2022-12-03T09:29:00.673Z,94.18
2022-12-03T09:30:00.664Z,93.30
2022-12-03T09:31:00.666Z,94.55
2022-12-03T09:32:00.703Z,94.45
2022-12-03T09:33:00.625Z,93.51
2022-12-03T09:34:00.627Z,94.55
2022-12-03T09:35:00.632Z,94.96
2022-12-03T09:36:00.599Z,93.93
2022-12-03T09:37:00.600Z,93.93
2022-12-03T09:38:00.589Z,93.93
2022-12-03T09:39:00.592Z,94.96
2022-12-03T09:40:00.564Z,94.76
2022-12-03T09:41:00.572Z,94.55
2022-12-03T09:42:00.548Z,93.51
2022-12-03T09:43:00.560Z,94.65
2022-12-03T09:44:05.114Z,95.38
2022-12-03T09:45:00.515Z,94.86
2022-12-03T09:46:00.547Z,94.45
2022-12-03T09:47:00.492Z,95.17
2022-12-03T09:48:00.469Z,94.24
2022-12-03T09:49:00.496Z,94.76
2022-12-03T09:50:00.464Z,94.86
2022-12-03T09:51:00.458Z,94.55
2022-12-03T09:52:00.423Z,94.76
2022-12-03T09:53:00.427Z,94.65
2022-12-03T09:54:00.405Z,95.38
2022-12-03T09:55:00.424Z,95.28
2022-12-03T09:56:00.393Z,94.65
2022-12-03T09:57:00.392Z,94.96
2022-12-03T09:58:00.364Z,93.30
2022-12-03T09:59:00.385Z,93.78
2022-12-03T10:00:00.346Z,93.99
2022-12-03T10:01:00.430Z,94.92
2022-12-03T10:02:00.457Z,94.30
2022-12-03T10:03:00.329Z,94.30
2022-12-03T10:04:00.334Z,93.68
2022-12-03T10:05:00.467Z,95.54
2022-12-03T10:06:00.293Z,95.13
2022-12-03T10:07:00.327Z,94.92
2022-12-03T10:08:00.313Z,95.03
2022-12-03T10:09:00.300Z,95.13
2022-12-03T10:10:00.237Z,95.34
2022-12-03T10:11:00.239Z,95.44
2022-12-03T10:12:00.225Z,93.16
2022-12-03T10:13:00.254Z,93.05
2022-12-03T10:14:00.194Z,93.99
2022-12-03T10:15:00.211Z,93.99
2022-12-03T10:16:00.191Z,95.34
2022-12-03T10:17:00.326Z,94.09
2022-12-03T10:18:00.159Z,94.20
2022-12-03T10:19:00.165Z,93.47
2022-12-03T10:20:00.154Z,93.57
2022-12-03T10:21:00.145Z,95.03
2022-12-03T10:22:00.111Z,95.03
2022-12-03T10:23:00.179Z,94.71
2022-12-03T10:24:00.118Z,94.92
2022-12-03T10:25:00.111Z,94.51
2022-12-03T10:26:00.075Z,95.86
2022-12-03T10:27:00.084Z,94.20
2022-12-03T10:28:00.042Z,95.13
2022-12-03T10:29:00.082Z,94.30
2022-12-03T10:30:00.037Z,94.71
2022-12-03T10:31:00.139Z,95.54
2022-12-03T10:32:00.112Z,95.44
2022-12-03T10:33:00.015Z,95.34
2022-12-03T10:34:00.000Z,95.13
2022-12-03T10:35:00.006Z,94.92
2022-12-03T10:35:59.964Z,93.68
2022-12-03T10:36:59.992Z,94.71
2022-12-03T10:37:59.946Z,94.61
2022-12-03T10:38:59.947Z,95.13
2022-12-03T10:39:59.964Z,95.65
2022-12-03T10:40:59.935Z,95.65
2022-12-03T10:41:59.902Z,94.40
2022-12-03T10:42:59.902Z,95.03
2022-12-03T10:43:59.879Z,95.13
2022-12-03T10:44:59.882Z,95.54
2022-12-03T10:46:03.825Z,95.13
2022-12-03T10:46:59.980Z,94.40
2022-12-03T10:47:59.839Z,94.20
2022-12-03T10:48:59.878Z,92.94
2022-12-03T10:49:59.816Z,93.47
2022-12-03T10:50:59.859Z,94.71
2022-12-03T10:51:59.893Z,93.99
2022-12-03T10:52:59.802Z,93.99
2022-12-03T10:53:59.778Z,94.51
2022-12-03T10:54:59.770Z,95.48
2022-12-03T10:55:59.826Z,93.62
2022-12-03T10:56:59.783Z,95.59
2022-12-03T10:57:59.739Z,95.59
2022-12-03T10:58:59.747Z,95.59
2022-12-03T10:59:59.712Z,95.17
2022-12-03T11:00:59.838Z,96.21
2022-12-03T11:01:59.829Z,96.52
2022-12-03T11:02:59.720Z,95.28
2022-12-03T11:03:59.758Z,93.41
2022-12-03T11:04:59.681Z,94.76
2022-12-03T11:05:59.653Z,94.86
2022-12-03T11:06:59.693Z,95.17
2022-12-03T11:07:59.712Z,94.76
2022-12-03T11:09:05.338Z,94.34
2022-12-03T11:09:59.641Z,95.07
2022-12-03T11:10:59.617Z,94.96
2022-12-03T11:11:59.589Z,94.34
2022-12-03T11:12:59.595Z,95.17
2022-12-03T11:13:59.572Z,95.28
2022-12-03T11:14:59.570Z,94.86
2022-12-03T11:15:59.690Z,94.96
2022-12-03T11:16:59.601Z,95.90
2022-12-03T11:17:59.523Z,94.86
2022-12-03T11:18:59.530Z,94.24
2022-12-03T11:19:59.516Z,94.96
2022-12-03T11:20:59.509Z,95.90
2022-12-03T11:21:59.511Z,95.28
2022-12-03T11:23:00.229Z,95.48
2022-12-03T11:23:59.507Z,95.59
2022-12-03T11:24:59.446Z,95.28
2022-12-03T11:25:59.454Z,95.28
2022-12-03T11:26:59.435Z,95.07
2022-12-03T11:27:59.462Z,95.17
2022-12-03T11:28:59.409Z,96.00
2022-12-03T11:29:59.434Z,95.38
2022-12-03T11:30:59.478Z,94.96
2022-12-03T11:31:59.405Z,94.24
2022-12-03T11:32:59.362Z,96.11
2022-12-03T11:33:59.398Z,95.44
2022-12-03T11:34:59.348Z,95.23
2022-12-03T11:35:59.351Z,95.75
2022-12-03T11:37:01.934Z,95.34
2022-12-03T11:37:59.329Z,95.65
2022-12-03T11:38:59.345Z,95.44
2022-12-03T11:39:59.303Z,95.03
2022-12-03T11:40:59.293Z,94.82
2022-12-03T11:41:59.302Z,94.71
2022-12-03T11:42:59.264Z,95.13
2022-12-03T11:43:59.268Z,95.23
2022-12-03T11:44:59.269Z,95.65
2022-12-03T11:46:04.104Z,95.13
2022-12-03T11:46:59.341Z,95.03
2022-12-03T11:47:59.258Z,95.86
2022-12-03T11:48:59.198Z,95.13
2022-12-03T11:49:59.241Z,95.54
2022-12-03T11:50:59.184Z,95.75
2022-12-03T11:51:59.185Z,95.03
2022-12-03T11:52:59.170Z,95.44
2022-12-03T11:53:59.212Z,95.75
2022-12-03T11:54:59.150Z,95.23
2022-12-03T11:56:04.204Z,95.23
2022-12-03T11:56:59.119Z,93.99
2022-12-03T11:57:59.137Z,94.51
2022-12-03T11:58:59.108Z,95.23
2022-12-03T11:59:59.120Z,94.82
2022-12-03T12:00:59.121Z,93.10
2022-12-03T12:01:59.099Z,94.76
2022-12-03T12:02:59.207Z,94.86
2022-12-03T12:03:59.104Z,94.51
2022-12-03T12:04:59.039Z,94.45
2022-12-03T12:05:59.047Z,94.34
2022-12-03T12:06:59.040Z,94.76
2022-12-03T12:07:59.094Z,95.13
2022-12-03T12:08:58.988Z,94.55
2022-12-03T12:09:58.987Z,95.23
2022-12-03T12:10:58.970Z,95.65
2022-12-03T12:11:59.020Z,94.61
2022-12-03T12:12:58.944Z,95.34
2022-12-03T12:13:59.001Z,95.86
2022-12-03T12:14:58.943Z,95.96
2022-12-03T12:15:59.011Z,95.44
2022-12-03T12:16:58.917Z,94.09
2022-12-03T12:17:58.945Z,95.34
2022-12-03T12:18:58.887Z,94.71
2022-12-03T12:19:59.317Z,95.44
2022-12-03T12:20:58.862Z,95.03
2022-12-03T12:21:58.876Z,95.54
2022-12-03T12:22:58.842Z,95.75
2022-12-03T12:23:58.863Z,95.44
2022-12-03T12:24:58.825Z,94.30
2022-12-03T12:25:58.862Z,94.92
2022-12-03T12:26:58.799Z,94.82
2022-12-03T12:27:58.806Z,94.30
2022-12-03T12:28:58.779Z,94.09
2022-12-03T12:29:58.778Z,94.82
2022-12-03T12:30:58.815Z,95.03
2022-12-03T12:31:58.853Z,95.13
2022-12-03T12:32:58.744Z,94.92
2022-12-03T12:33:58.757Z,95.03
2022-12-03T12:34:58.715Z,94.61
2022-12-03T12:35:58.745Z,94.40
2022-12-03T12:36:58.697Z,95.23
2022-12-03T12:38:00.331Z,95.54
2022-12-03T12:38:58.668Z,95.03
2022-12-03T12:39:58.677Z,94.20
2022-12-03T12:40:58.665Z,94.71
2022-12-03T12:41:58.656Z,94.92
2022-12-03T12:42:58.640Z,94.40
2022-12-03T12:43:58.677Z,94.82
2022-12-03T12:44:58.625Z,94.82
2022-12-03T12:45:58.623Z,95.23
2022-12-03T12:46:58.638Z,94.71
2022-12-03T12:47:58.597Z,94.71
2022-12-03T12:48:59.950Z,94.61
2022-12-03T12:49:58.610Z,93.78
2022-12-03T12:50:58.570Z,94.09
2022-12-03T12:51:58.551Z,94.71
2022-12-03T12:52:58.534Z,94.09
2022-12-03T12:53:58.525Z,95.03
2022-12-03T12:55:04.346Z,94.92
2022-12-03T12:55:58.519Z,95.23
2022-12-03T12:56:58.517Z,93.99
2022-12-03T12:57:58.490Z,95.03
2022-12-03T12:58:58.456Z,94.82
2022-12-03T12:59:58.479Z,94.61
2022-12-03T13:00:58.519Z,95.13
2022-12-03T13:01:58.507Z,94.82
2022-12-03T13:02:58.519Z,95.34
2022-12-03T13:03:58.426Z,95.23
2022-12-03T13:04:58.405Z,94.82
2022-12-03T13:05:58.421Z,95.75
2022-12-03T13:06:58.385Z,96.06
2022-12-03T13:07:58.491Z,95.23
2022-12-03T13:08:58.372Z,95.03
2022-12-03T13:09:58.374Z,94.71
2022-12-03T13:10:58.340Z,93.37
2022-12-03T13:11:58.333Z,94.82
2022-12-03T13:12:58.336Z,93.68
2022-12-03T13:13:58.342Z,94.30
2022-12-03T13:14:58.296Z,94.92
2022-12-03T13:15:58.334Z,96.17
2022-12-03T13:16:58.346Z,94.30
2022-12-03T13:17:58.305Z,96.48
2022-12-03T13:18:58.278Z,95.96
2022-12-03T13:20:06.665Z,96.48
2022-12-03T13:20:58.237Z,95.23
2022-12-03T13:21:58.234Z,95.54
2022-12-03T13:22:58.213Z,94.71
2022-12-03T13:23:58.251Z,95.54
2022-12-03T13:24:58.288Z,95.96
2022-12-03T13:26:06.364Z,95.34
2022-12-03T13:26:58.170Z,94.40
2022-12-03T13:27:58.176Z,94.71
2022-12-03T13:28:58.528Z,95.69
2022-12-03T13:29:58.182Z,94.34
2022-12-03T13:30:58.119Z,95.28
2022-12-03T13:31:58.254Z,93.93
2022-12-03T13:32:58.110Z,94.03
2022-12-03T13:33:58.117Z,94.13
2022-12-03T13:34:58.110Z,93.93
2022-12-03T13:35:58.123Z,95.38
2022-12-03T13:36:58.846Z,94.24
2022-12-03T13:37:58.071Z,95.48
2022-12-03T13:38:58.062Z,95.44
2022-12-03T13:39:58.083Z,95.38
2022-12-03T13:40:58.023Z,95.17
2022-12-03T13:41:58.035Z,95.17
2022-12-03T13:42:57.997Z,95.69
2022-12-03T13:43:58.012Z,94.34
2022-12-03T13:44:57.977Z,94.76
2022-12-03T13:45:58.069Z,95.69
2022-12-03T13:46:57.958Z,94.55
2022-12-03T13:47:57.965Z,95.07
2022-12-03T13:49:01.739Z,94.96
2022-12-03T13:49:57.984Z,96.11
2022-12-03T13:50:57.965Z,94.86
2022-12-03T13:51:57.932Z,95.17
2022-12-03T13:52:57.897Z,95.48
2022-12-03T13:53:57.900Z,94.96
2022-12-03T13:54:57.921Z,95.17
2022-12-03T13:55:57.886Z,94.86
2022-12-03T13:56:57.855Z,95.28
2022-12-03T13:57:57.856Z,94.86
2022-12-03T13:58:57.844Z,95.28
2022-12-03T13:59:57.840Z,95.59
2022-12-03T14:00:57.892Z,95.17
2022-12-03T14:01:57.889Z,95.48
2022-12-03T14:02:58.006Z,96.73
2022-12-03T14:03:57.818Z,95.79
2022-12-03T14:05:00.457Z,94.65
2022-12-03T14:05:57.787Z,95.48
2022-12-03T14:06:57.764Z,95.07
2022-12-03T14:07:57.872Z,94.86
2022-12-03T14:08:57.728Z,94.96
2022-12-03T14:09:57.815Z,95.07
2022-12-03T14:11:00.546Z,94.96
2022-12-03T14:11:57.710Z,95.07
2022-12-03T14:12:57.709Z,96.52
2022-12-03T14:13:57.695Z,96.00
2022-12-03T14:14:57.671Z,94.76
2022-12-03T14:15:57.763Z,94.65
2022-12-03T14:17:00.037Z,94.55
2022-12-03T14:17:57.681Z,96.00
2022-12-03T14:18:57.631Z,95.38
2022-12-03T14:19:57.848Z,94.86
2022-12-03T14:20:57.614Z,94.65
2022-12-03T14:21:57.600Z,94.76
2022-12-03T14:22:59.486Z,94.24
2022-12-03T14:23:57.596Z,94.86
2022-12-03T14:24:57.559Z,94.55
2022-12-03T14:25:57.567Z,94.96
2022-12-03T14:26:57.533Z,95.07
2022-12-03T14:27:57.550Z,94.96
2022-12-03T14:28:57.515Z,95.48
2022-12-03T14:29:57.867Z,95.17
2022-12-03T14:30:57.499Z,95.48
2022-12-03T14:31:57.544Z,96.00
2022-12-03T14:32:57.473Z,95.17
2022-12-03T14:33:57.486Z,95.48
2022-12-03T14:34:57.500Z,94.03
2022-12-03T14:35:57.456Z,94.45
2022-12-03T14:36:57.446Z,95.28
2022-12-03T14:37:57.464Z,94.65
2022-12-03T14:38:57.427Z,96.00
2022-12-03T14:39:57.736Z,96.00
2022-12-03T14:40:57.420Z,95.69
2022-12-03T14:41:57.428Z,94.86
2022-12-03T14:42:57.388Z,95.69
2022-12-03T14:43:57.395Z,96.00
2022-12-03T14:44:57.386Z,95.59
2022-12-03T14:45:57.465Z,94.86
2022-12-03T14:46:57.731Z,95.69
2022-12-03T14:47:57.369Z,94.86
2022-12-03T14:48:57.309Z,94.13
2022-12-03T14:49:57.639Z,95.79
2022-12-03T14:50:57.294Z,95.90
2022-12-03T14:51:57.318Z,96.31
2022-12-03T14:52:57.289Z,95.38
2022-12-03T14:53:57.309Z,95.79
2022-12-03T14:54:57.255Z,96.11
2022-12-03T14:55:57.251Z,95.59
2022-12-03T14:56:57.244Z,95.17
2022-12-03T14:57:57.234Z,95.42
2022-12-03T14:58:57.241Z,95.63
2022-12-03T14:59:57.505Z,95.01
2022-12-03T15:00:57.233Z,95.63
2022-12-03T15:01:57.437Z,95.84
2022-12-03T15:02:57.285Z,96.78
2022-12-03T15:03:57.176Z,95.90
2022-12-03T15:04:57.165Z,95.42
2022-12-03T15:05:57.164Z,94.80
2022-12-03T15:06:57.141Z,95.01
2022-12-03T15:07:57.269Z,94.90
2022-12-03T15:08:57.104Z,95.53
2022-12-03T15:09:57.363Z,95.63
2022-12-03T15:10:57.080Z,95.32
2022-12-03T15:11:57.086Z,95.73
2022-12-03T15:12:57.078Z,95.32
2022-12-03T15:13:57.099Z,94.59
2022-12-03T15:14:57.030Z,95.94
2022-12-03T15:15:57.077Z,94.49
2022-12-03T15:16:57.094Z,94.49
2022-12-03T15:17:57.043Z,96.04
2022-12-03T15:18:57.002Z,95.21
2022-12-03T15:19:57.058Z,95.84
2022-12-03T15:20:56.972Z,96.04
2022-12-03T15:21:56.987Z,96.57
2022-12-03T15:22:56.951Z,96.78
2022-12-03T15:23:56.987Z,96.25
2022-12-03T15:24:56.946Z,95.53
2022-12-03T15:25:56.956Z,95.63
2022-12-03T15:26:56.916Z,96.04
2022-12-03T15:27:56.953Z,96.15
2022-12-03T15:28:56.896Z,95.73
2022-12-03T15:29:57.038Z,96.25
2022-12-03T15:30:56.928Z,96.25
2022-12-03T15:31:56.971Z,95.63
2022-12-03T15:32:56.841Z,95.11
2022-12-03T15:33:56.889Z,96.15
2022-12-03T15:34:56.850Z,96.57
2022-12-03T15:35:56.833Z,96.47
2022-12-03T15:36:56.798Z,96.15
2022-12-03T15:37:56.799Z,96.15
2022-12-03T15:38:56.824Z,96.15
2022-12-03T15:39:57.109Z,96.15
2022-12-03T15:40:56.771Z,96.25
2022-12-03T15:41:56.762Z,95.94
2022-12-03T15:42:56.771Z,95.21
2022-12-03T15:43:56.800Z,94.90
2022-12-03T15:44:56.741Z,95.11
2022-12-03T15:45:56.777Z,95.32
2022-12-03T15:46:56.716Z,94.90
2022-12-03T15:47:56.688Z,94.70
2022-12-03T15:48:56.700Z,95.11
2022-12-03T15:49:56.998Z,95.42
2022-12-03T15:50:56.739Z,94.90
2022-12-03T15:51:56.749Z,95.84
2022-12-03T15:52:56.705Z,96.36
2022-12-03T15:53:56.672Z,96.47
2022-12-03T15:54:56.702Z,96.04
2022-12-03T15:55:56.686Z,96.15
2022-12-03T15:56:57.663Z,95.94
2022-12-03T15:57:56.656Z,96.67
2022-12-03T15:58:56.640Z,96.57
2022-12-03T15:59:57.237Z,96.04
2022-12-03T16:00:56.621Z,95.73
2022-12-03T16:01:56.691Z,94.80
2022-12-03T16:02:56.706Z,95.94
2022-12-03T16:03:56.595Z,96.04
2022-12-03T16:04:56.587Z,96.47
2022-12-03T16:05:56.584Z,96.15
2022-12-03T16:06:56.575Z,96.04
2022-12-03T16:07:56.619Z,96.36
2022-12-03T16:08:56.534Z,96.57
2022-12-03T16:09:57.016Z,96.04
2022-12-03T16:10:56.536Z,95.21
2022-12-03T16:11:56.510Z,96.04
2022-12-03T16:12:56.538Z,94.80
2022-12-03T16:13:56.492Z,96.36
2022-12-03T16:14:56.487Z,96.15
2022-12-03T16:15:56.479Z,95.32
2022-12-03T16:16:56.467Z,95.73
2022-12-03T16:17:56.448Z,95.42
2022-12-03T16:18:56.440Z,95.94
2022-12-03T16:19:56.848Z,96.88
2022-12-03T16:20:56.422Z,96.15
2022-12-03T16:21:56.382Z,95.21
2022-12-03T16:22:56.406Z,95.11
2022-12-03T16:23:56.393Z,95.63
2022-12-03T16:24:56.364Z,95.42
2022-12-03T16:25:56.361Z,95.42
2022-12-03T16:26:56.360Z,96.15
2022-12-03T16:27:56.322Z,95.63
2022-12-03T16:28:56.332Z,95.73
2022-12-03T16:29:56.548Z,95.63
2022-12-03T16:30:56.395Z,96.98
2022-12-03T16:31:56.311Z,97.50
2022-12-03T16:32:56.292Z,96.78
2022-12-03T16:33:56.270Z,95.73
2022-12-03T16:34:56.336Z,95.84
2022-12-03T16:35:56.329Z,95.11
2022-12-03T16:36:56.262Z,94.38
2022-12-03T16:37:56.244Z,95.73
2022-12-03T16:38:56.245Z,95.42
2022-12-03T16:39:56.654Z,95.94
2022-12-03T16:40:56.209Z,95.94
2022-12-03T16:41:56.186Z,96.25
2022-12-03T16:42:56.184Z,95.84
2022-12-03T16:43:56.177Z,95.11
2022-12-03T16:44:56.168Z,94.70